Tres Pontas, Brazil
Current Conditions -  °F | °C
As of 10:00 AM on Tuesday 27 Jan 2015 (Local Time) from SBGW Reporting Station
Clear Clear  
Wind Chill: 79°   Ceiling: Unl
Heat Index: 81°   Visibility: 6mi
Dew Point: 68°   Wind: 1mph
Humidity: 69%   Direction: 200°SSW
Pressure: 30.06"   Gusts: NA
Location:  21.36°S, 45.52°W
Report Text: SBGW 271200Z 20001KT CAVOK 26/20 Q1018
Loading
Personal Weather Stations






























Interactive Weather Map New forecast layout! Learn more

10-Day Weather Forecast

Advertisements
Track Severe Weather on mobile